KLOZ/LOZ METAR and TAF weather

Enter ICAO airport designator
Station Type Date Time Source
KLOZ METAR 2024/02/26 16:53 UTC NOAA

KLOZ 261653Z AUTO 23011KT 190V260 10SM OVC090 17/03 A2998 RMK AO2 SLP148 T01720028


Station Type Date Time Source
KLOZ Decoded METAR 2024/02/26 16:53 UTC NOAA

LONDON-CORBIN AIRPORT, KY, United States (KLOZ) 37-05N 084-04W 362M
Feb 26, 2024 - 11:53 AM EST / 2024.02.26 1653 UTC
Wind: from the SW (230 degrees) at 13 MPH (11 KT) (direction variable):0
Visibility: 10 mile(s):0
Sky conditions: overcast
Temperature: 63.0 F (17.2 C)
Dew Point: 37.0 F (2.8 C)
Relative Humidity: 38%
Pressure (altimeter): 29.98 in. Hg (1015 hPa)
ob: KLOZ 261653Z AUTO 23011KT 190V260 10SM OVC090 17/03 A2998 RMK AO2 SLP148 T01720028
cycle: 17

Station Type Date Time Source
KLOZ TAF 2024/02/26 17:45 UTC NOAA